Time;durP1;ratioP1;P1;durP2;ratioP2;P2;SDS_P1;SDS_P2;PMS_P1;PMS_P2;Temp;Humidity;BMP_temperature;BMP_pressure;BME280_temperature;BME280_humidity;BME280_pressure;Samples;Min_cycle;Max_cycle;Signal;HPM_P1;HPM_P2
2022/08/11 00:00:44;;;;;;;5.90;2.90;;;;;;;;;;5010890;28;20525;-77
2022/08/11 00:03:10;;;;;;;4.85;3.17;;;;;;;;;;5011292;28;20073;-77
2022/08/11 00:05:52;;;;;;;6.43;3.17;;;;;;;18.84;67.20;68868.44;5013022;28;20100;-77
2022/08/11 00:08:28;;;;;;;6.50;3.25;;;;;;;;;;5012277;28;20037;-79
2022/08/11 00:10:57;;;;;;;4.55;3.00;;;;;;;18.77;67.45;68860.47;5012093;28;20058;-80
2022/08/11 00:13:32;;;;;;;5.60;3.38;;;;;;;18.75;67.48;68852.78;5011883;28;20532;-77
2022/08/11 00:15:59;;;;;;;6.10;3.55;;;;;;;18.74;67.69;68857.03;5005900;28;20054;-76
2022/08/11 00:18:25;;;;;;;6.65;3.20;;;;;;;18.69;67.94;68851.88;5012730;28;20571;-77
2022/08/11 00:20:50;;;;;;;5.57;3.70;;;;;;;;;;5010177;28;20062;-75
2022/08/11 00:23:18;;;;;;;7.05;3.53;;;;;;;18.63;68.31;68845.59;5014492;28;20042;-79
2022/08/11 00:25:50;;;;;;;7.30;3.50;;;;;;;18.57;68.77;68830.09;5010716;28;20065;-78
2022/08/11 00:28:33;;;;;;;6.10;3.72;;;;;;;18.58;68.95;68839.31;5008829;28;20137;-79
2022/08/11 00:31:03;;;;;;;6.68;3.60;;;;;;;;;;5013243;28;20037;-78
2022/08/11 00:33:49;;;;;;;7.38;3.80;;;;;;;18.55;69.01;68839.16;5014251;28;20092;-76
2022/08/11 00:36:17;;;;;;;5.20;3.42;;;;;;;18.55;69.08;68836.44;5013749;28;20046;-77
2022/08/11 00:38:44;;;;;;;4.55;3.40;;;;;;;18.55;69.14;68836.44;5028781;28;20073;-77
2022/08/11 00:41:35;;;;;;;5.97;3.53;;;;;;;18.51;69.26;68826.50;5008004;28;20053;-75
2022/08/11 00:44:28;;;;;;;7.38;3.55;;;;;;;18.46;69.41;68826.19;5013587;28;20041;-77
2022/08/11 00:47:09;;;;;;;6.18;3.60;;;;;;;18.47;69.53;68830.59;5011331;28;21007;-78
2022/08/11 00:49:40;;;;;;;6.75;3.75;;;;;;;18.38;69.82;68812.22;5015111;28;20061;-76
2022/08/11 00:52:43;;;;;;;5.72;3.60;;;;;;;18.39;69.79;68820.88;5012945;28;20045;-76
2022/08/11 00:55:33;;;;;;;5.28;3.75;;;;;;;;;;5014802;28;20450;-77
2022/08/11 00:58:24;;;;;;;7.47;3.72;;;;;;;18.30;70.22;68802.50;5010078;28;20038;-79
2022/08/11 01:01:15;;;;;;;6.50;3.63;;;;;;;18.31;70.35;68809.06;5012967;28;20069;-76
2022/08/11 01:03:43;;;;;;;5.22;3.38;;;;;;;;;;4972241;28;20136;-77
2022/08/11 01:06:37;;;;;;;6.20;3.57;;;;;;;18.16;70.88;68798.47;5012701;28;20145;-78
2022/08/11 01:09:30;;;;;;;5.70;4.00;;;;;;;18.16;71.05;68793.06;5004740;28;20045;-78
2022/08/11 01:12:14;;;;;;;5.68;3.80;;;;;;;18.14;71.31;68790.78;5011796;28;20397;-78
2022/08/11 01:15:05;;;;;;;5.75;4.10;;;;;;;18.10;71.59;68785.66;5013947;28;20048;-79
2022/08/11 01:17:49;;;;;;;7.88;4.07;;;;;;;;;;5013687;28;20045;-78
2022/08/11 01:20:33;;;;;;;7.53;3.80;;;;;;;;;;5009174;28;20034;-80
2022/08/11 01:23:30;;;;;;;6.50;4.30;;;;;;;17.96;72.09;68765.44;5011865;28;20410;-77
2022/08/11 01:26:14;;;;;;;6.00;3.78;;;;;;;;;;5011944;28;20603;-77
2022/08/11 01:28:45;;;;;;;5.82;3.65;;;;;;;17.90;72.39;68763.41;5009266;28;20554;-78
2022/08/11 01:31:41;;;;;;;6.60;4.57;;;;;;;17.83;72.61;68755.97;5010410;28;20800;-78
2022/08/11 01:34:24;;;;;;;7.45;4.38;;;;;;;;;;5013870;28;20054;-78
2022/08/11 01:37:27;;;;;;;7.50;4.30;;;;;;;17.79;72.81;68751.97;5014034;28;20412;-76
2022/08/11 01:40:18;;;;;;;7.45;4.43;;;;;;;;;;5012170;28;20042;-79
2022/08/11 01:46:04;;;;;;;5.10;4.00;;;;;;;17.69;73.15;68743.22;4963091;28;20460;-78
2022/08/11 01:48:40;;;;;;;6.15;4.47;;;;;;;17.69;73.21;68740.53;4971455;28;20501;-78
2022/08/11 01:51:44;;;;;;;8.27;4.45;;;;;;;17.67;73.31;68740.38;4985756;28;20105;-77
2022/08/11 01:54:16;;;;;;;7.75;4.05;;;;;;;17.58;73.91;68731.25;4966226;28;20059;-77
2022/08/11 01:56:41;;;;;;;7.88;4.68;;;;;;;;;;4968130;28;20247;-77
2022/08/11 01:59:09;;;;;;;5.80;4.30;;;;;;;17.56;73.94;68726.28;4968069;28;20043;-77
2022/08/11 02:01:34;;;;;;;5.45;4.25;;;;;;;17.52;73.94;68721.13;4967650;28;20792;-77
2022/08/11 02:04:00;;;;;;;7.30;4.57;;;;;;;;;;4973268;28;20034;-78
2022/08/11 02:09:28;;;;;;;6.78;4.78;;;;;;;17.44;74.65;68712.03;4965460;28;20300;-78
2022/08/11 02:12:00;;;;;;;7.88;4.72;;;;;;;17.38;74.75;68705.75;4966702;28;20126;-77
2022/08/11 02:14:31;;;;;;;5.95;4.60;;;;;;;17.36;74.81;68704.03;4970380;28;20134;-78
2022/08/11 02:17:17;;;;;;;6.13;4.40;;;;;;;17.30;75.28;68696.63;4968011;28;20053;-78
2022/08/11 02:23:38;;;;;;;5.15;4.38;;;;;;;;;;4956320;28;20177;-79
2022/08/11 02:26:09;;;;;;;6.90;3.95;;;;;;;17.24;75.24;68693.03;4969771;28;20058;-78
2022/08/11 02:28:41;;;;;;;7.32;4.25;;;;;;;17.29;75.13;68698.75;4969302;28;20053;-78
2022/08/11 02:34:14;;;;;;;7.25;4.43;;;;;;;;;;4969810;28;20093;-78
2022/08/11 02:37:01;;;;;;;6.53;4.43;;;;;;;17.22;75.57;68690.75;4968486;28;20494;-77
2022/08/11 02:39:45;;;;;;;6.43;4.80;;;;;;;17.10;76.16;68674.94;4965962;28;20039;-78
2022/08/11 02:42:43;;;;;;;8.65;5.03;;;;;;;17.11;75.84;68675.50;4967648;28;20121;-77
2022/08/11 02:45:34;;;;;;;6.72;4.40;;;;;;;17.03;76.16;68666.97;4966284;28;20066;-78
2022/08/11 02:51:31;;;;;;;6.60;5.20;;;;;;;;;;4948993;28;20046;-77
2022/08/11 02:54:07;;;;;;;6.83;5.10;;;;;;;17.02;76.17;68665.25;4965961;28;20047;-79
2022/08/11 02:56:55;;;;;;;9.25;5.10;;;;;;;16.99;76.49;68664.50;4967690;28;20278;-78
2022/08/11 03:02:32;;;;;;;9.18;5.40;;;;;;;16.99;76.43;68662.38;4965640;28;20574;-78
2022/08/11 03:05:06;;;;;;;8.50;5.45;;;;;;;16.94;76.81;68661.50;4968998;28;20125;-78
2022/08/11 03:08:03;;;;;;;8.50;5.25;;;;;;;16.89;77.08;68651.56;4967759;28;20045;-78
2022/08/11 03:10:41;;;;;;;5.85;4.85;;;;;;;16.88;77.04;68649.84;4949075;28;20047;-78
2022/08/11 03:19:25;;;;;;;7.15;5.18;;;;;;;16.76;77.82;68639.41;4967123;28;20520;-78
2022/08/11 03:22:01;;;;;;;8.20;5.57;;;;;;;16.70;78.13;68629.84;4967418;28;20043;-78
2022/08/11 03:24:40;;;;;;;7.05;5.35;;;;;;;16.66;78.37;68625.31;4948878;28;20054;-78
2022/08/11 03:27:19;;;;;;;9.20;5.40;;;;;;;16.65;78.32;68629.53;4967224;28;20042;-78
2022/08/11 03:30:00;;;;;;;;;;;;;;;16.56;78.69;68613.91;4968733;28;20693;-79
2022/08/11 03:32:29;;;;;;;7.53;5.70;;;;;;;;;;4967528;28;20349;-79
2022/08/11 03:35:00;;;;;;;7.78;6.13;;;;;;;16.51;78.96;68608.75;4971707;28;20074;-79
2022/08/11 03:37:49;;;;;;;8.15;6.03;;;;;;;16.45;79.45;68602.47;4968040;28;20185;-78
2022/08/11 03:41:41;;;;;;;10.30;6.50;;;;;;;16.37;80.08;68592.78;4964888;28;20054;-79
2022/08/11 03:43:26;;;;;;;10.60;6.70;;;;;;;16.36;79.87;68591.66;4966475;28;20035;-79
2022/08/11 03:46:02;;;;;;;7.97;5.55;;;;;;;16.32;79.93;68589.78;4971790;28;20042;-78
2022/08/11 03:48:54;;;;;;;8.88;6.43;;;;;;;16.30;79.94;68588.06;4970458;28;20093;-79
2022/08/11 03:51:29;;;;;;;9.30;6.78;;;;;;;16.31;80.26;68585.97;4958328;28;20043;-79
2022/08/11 03:54:02;;;;;;;8.68;6.63;;;;;;;16.32;80.14;68587.09;4977401;28;20043;-79
2022/08/11 03:56:34;;;;;;;7.45;6.43;;;;;;;16.28;80.30;68585.78;4982488;28;20047;-79
2022/08/11 03:59:37;;;;;;;8.73;6.90;;;;;;;16.23;80.54;68577.41;4981288;28;20327;-79
2022/08/11 04:02:23;;;;;;;10.10;7.18;;;;;;;16.18;80.58;68571.72;4983460;28;20574;-79
2022/08/11 04:05:11;;;;;;;8.85;6.63;;;;;;;16.13;81.09;68571.38;4980323;28;20046;-78
2022/08/11 04:07:55;;;;;;;8.15;6.80;;;;;;;;;;4960225;28;20063;-78
2022/08/11 04:10:45;;;;;;;10.60;6.85;;;;;;;16.06;81.18;68558.03;4970780;28;20047;-78
2022/08/11 04:13:29;;;;;;;11.18;7.10;;;;;;;16.06;81.32;68558.03;4974266;28;20051;-78
2022/08/11 04:16:31;;;;;;;8.52;6.35;;;;;;;16.05;81.21;68562.81;4974641;28;20046;-78
2022/08/11 04:19:15;;;;;;;9.15;7.25;;;;;;;16.02;81.63;68554.63;4967693;28;20054;-79
2022/08/11 04:21:40;;;;;;;12.63;6.72;;;;;;;;;;4982591;28;20651;-79
2022/08/11 04:24:24;;;;;;;10.70;7.30;;;;;;;16.00;82.08;68552.34;4977845;28;20049;-78
2022/08/11 04:27:08;;;;;;;10.40;7.30;;;;;;;16.00;82.17;68552.34;4977900;28;20346;-78
2022/08/11 04:30:01;;;;;;;9.48;7.18;;;;;;;15.97;82.21;68548.91;4936848;28;20169;-78
2022/08/11 04:32:36;;;;;;;9.55;6.80;;;;;;;;;;4958649;28;20528;-78
2022/08/11 04:35:19;;;;;;;10.02;7.07;;;;;;;16.04;81.58;68555.75;4971190;28;20105;-78
2022/08/11 04:37:53;;;;;;;9.50;6.90;;;;;;;15.97;82.52;68548.34;4980029;28;20114;-79
2022/08/11 04:40:31;;;;;;;10.10;6.97;;;;;;;15.99;82.28;68551.19;4976591;28;20129;-78
2022/08/11 04:43:21;;;;;;;9.30;7.20;;;;;;;15.99;82.45;68550.63;4981670;28;20057;-78
2022/08/11 04:46:13;;;;;;;9.75;6.65;;;;;;;16.02;82.13;68557.31;4964223;28;20043;-78
2022/08/11 05:01:41;;;;;;;12.13;7.15;;;;;;;16.16;81.94;68569.44;4978027;28;20053;-79
2022/08/11 05:05:29;;;;;;;9.88;7.15;;;;;;;16.16;81.98;68572.69;4983784;28;20038;-78
2022/08/11 05:07:22;;;;;;;10.45;6.22;;;;;;;16.22;81.86;68576.84;4981907;28;20145;-78
2022/08/11 05:09:50;;;;;;;9.25;6.32;;;;;;;16.23;82.05;68578.00;4961472;28;20059;-78
2022/08/11 05:12:35;;;;;;;8.47;6.47;;;;;;;;;;4979447;28;20053;-78
2022/08/11 05:35:37;;;;;;;11.95;6.22;;;;;;;16.88;79.31;68650.41;4988470;28;20058;-79
2022/08/11 05:57:35;;;;;;;7.65;6.30;;;;;;;17.69;76.37;68740.53;4993505;28;20077;-78
2022/08/11 06:00:09;;;;;;;11.00;5.80;;;;;;;17.79;76.16;68751.97;4997199;28;20043;-78
2022/08/11 06:02:47;;;;;;;9.38;5.53;;;;;;;17.92;75.11;68765.66;4981410;28;20035;-78
2022/08/11 06:05:13;;;;;;;7.38;5.68;;;;;;;;;;4988152;28;20043;-79
2022/08/11 06:07:38;;;;;;;9.57;5.63;;;;;;;18.20;74.21;68800.31;4986056;28;20171;-79
2022/08/11 06:10:05;;;;;;;11.07;4.80;;;;;;;18.29;73.41;68810.03;4988925;28;20022;-79
2022/08/11 06:12:36;;;;;;;8.55;5.50;;;;;;;18.42;73.24;68821.63;4985227;28;20485;-79
2022/08/11 06:15:08;;;;;;;8.80;5.00;;;;;;;18.56;72.62;68837.59;4983126;28;20046;-79
2022/08/11 06:17:44;;;;;;;7.15;4.90;;;;;;;18.69;72.37;68854.56;4979909;28;20046;-79
2022/08/11 06:20:11;;;;;;;6.45;4.45;;;;;;;;;;4981919;28;20045;-79
2022/08/11 06:22:37;;;;;;;9.30;4.80;;;;;;;;;;4980856;28;20129;-79
2022/08/11 06:25:04;;;;;;;7.40;5.13;;;;;;;18.99;70.38;68887.72;4983268;28;20097;-79
2022/08/11 06:27:33;;;;;;;6.50;4.50;;;;;;;19.14;70.02;68896.75;4981036;28;20058;-79
2022/08/11 06:30:00;;;;;;;5.97;4.47;;;;;;;19.32;69.42;68922.72;4981668;28;20458;-79
2022/08/11 06:32:30;;;;;;;9.40;4.35;;;;;;;19.48;68.25;68939.84;4981074;28;20039;-79
2022/08/11 06:35:22;;;;;;;6.90;4.57;;;;;;;19.63;67.99;68956.44;4981567;28;20402;-79
2022/08/11 06:37:47;;;;;;;7.72;3.88;;;;;;;;;;4972750;28;20065;-79
2022/08/11 06:40:37;;;;;;;7.97;4.60;;;;;;;19.81;67.17;68977.59;4981200;28;20058;-79
2022/08/11 06:43:02;;;;;;;7.20;3.80;;;;;;;19.92;66.21;68983.63;4980073;28;20377;-79
2022/08/11 06:45:31;;;;;;;7.15;3.78;;;;;;;20.08;66.15;69006.75;4982159;28;20039;-78
2022/08/11 06:47:59;;;;;;;6.35;3.65;;;;;;;20.15;65.67;69009.91;4979459;28;20065;-79
2022/08/11 06:53:11;;;;;;;6.00;3.15;;;;;;;20.46;64.76;69050.19;4979772;28;20049;-79
2022/08/11 07:01:18;;;;;;;6.07;3.25;;;;;;;20.94;62.88;69098.00;4980957;28;20049;-79
2022/08/11 07:03:49;;;;;;;8.90;3.10;;;;;;;;;;4983079;28;20046;-79
2022/08/11 07:06:21;;;;;;;6.15;2.92;;;;;;;;;;4984040;28;20038;-79
2022/08/11 07:28:53;;;;;;;5.68;2.00;;;;;;;21.90;58.18;69210.44;4964603;28;20052;-79
2022/08/11 07:28:55;;;;;;;4.32;1.95;;;;;;;;;;4979037;28;20572;-79
2022/08/11 07:31:42;;;;;;;7.97;2.15;;;;;;;22.68;53.65;69290.47;4981499;28;20407;-79
2022/08/11 07:34:17;;;;;;;5.03;2.10;;;;;;;22.80;53.59;69305.81;4980855;28;20078;-79
2022/08/11 07:36:45;;;;;;;7.10;2.35;;;;;;;;;;4983963;28;20066;-79
2022/08/11 07:39:23;;;;;;;3.25;1.95;;;;;;;23.12;52.59;69342.47;4980903;28;20047;-79
2022/08/11 07:41:51;;;;;;;5.35;1.92;;;;;;;23.25;52.03;69356.81;4982494;28;20050;-79
2022/08/11 07:44:17;;;;;;;4.00;2.15;;;;;;;23.32;52.38;69370.25;4973258;28;20102;-79
2022/08/11 07:52:29;;;;;;;5.33;2.10;;;;;;;;;;4969043;28;20057;-79
2022/08/11 07:54:57;;;;;;;5.82;2.05;;;;;;;23.86;50.29;69422.28;4970482;28;20043;-77
2022/08/11 08:19:21;;;;;;;5.50;2.05;;;;;;;;;;4968257;28;20129;-79
2022/08/11 08:21:48;;;;;;;4.15;2.35;;;;;;;25.04;45.65;69551.47;4970800;28;20059;-79
2022/08/11 08:24:14;;;;;;;4.45;1.85;;;;;;;25.15;46.24;69569.56;4971035;28;20031;-79
2022/08/11 08:26:57;;;;;;;2.95;1.73;;;;;;;25.29;45.97;69585.63;4964272;28;20125;-77
2022/08/11 08:32:10;;;;;;;4.80;1.90;;;;;;;25.38;44.04;69595.94;4966678;28;20746;-78
2022/08/11 08:34:39;;;;;;;4.70;1.98;;;;;;;25.48;43.90;69611.72;4973379;28;20055;-77
2022/08/11 08:37:05;;;;;;;7.28;2.08;;;;;;;25.46;43.41;69603.97;4967795;28;20066;-78
2022/08/11 08:39:36;;;;;;;6.35;2.22;;;;;;;25.46;42.94;69601.22;4974862;28;20115;-79
2022/08/11 08:42:08;;;;;;;5.57;2.20;;;;;;;25.62;43.61;69622.31;4980179;28;20057;-79
2022/08/11 08:44:38;;;;;;;7.05;1.92;;;;;;;25.78;42.61;69640.69;4982254;28;20054;-79
2022/08/11 08:47:04;;;;;;;5.07;2.10;;;;;;;25.94;42.04;69653.03;4981533;28;20109;-79
2022/08/11 08:49:36;;;;;;;3.30;2.30;;;;;;;;;;4981660;28;20050;-79
2022/08/11 08:52:03;;;;;;;7.90;2.42;;;;;;;26.21;41.08;69685.63;4981057;28;20102;-79
2022/08/11 08:54:37;;;;;;;4.72;2.42;;;;;;;26.30;40.98;69704.72;4981523;28;20422;-79
2022/08/11 08:57:08;;;;;;;4.13;2.33;;;;;;;26.43;40.98;69718.50;4977397;28;20050;-79
2022/08/11 08:59:39;;;;;;;5.00;2.20;;;;;;;26.54;41.64;69725.69;4983981;28;20063;-79
2022/08/11 09:02:06;;;;;;;4.45;2.40;;;;;;;26.68;40.49;69741.19;4980644;28;20050;-79
2022/08/11 09:04:33;;;;;;;4.43;2.30;;;;;;;26.80;39.58;69749.50;4980794;28;20046;-79
2022/08/11 09:06:59;;;;;;;4.68;2.30;;;;;;;;;;4984291;28;20050;-79
2022/08/11 09:09:26;;;;;;;4.75;2.33;;;;;;;26.98;39.74;69770.19;4980797;28;20047;-81
2022/08/11 09:11:52;;;;;;;5.28;2.20;;;;;;;27.12;39.56;69791.16;4988820;28;20031;-80
2022/08/11 09:17:26;;;;;;;4.85;2.30;;;;;;;27.22;37.71;69796.63;4985052;28;20057;-80
2022/08/11 09:20:14;;;;;;;4.32;2.60;;;;;;;27.33;38.36;69811.41;4980671;28;20600;-80
2022/08/11 09:28:15;;;;;;;5.63;2.60;;;;;;;27.49;37.93;69831.97;4981160;28;20053;-80
2022/08/11 09:30:46;;;;;;;6.18;2.60;;;;;;;27.74;36.98;69854.66;4984306;28;20047;-80
2022/08/11 09:33:15;;;;;;;5.65;2.40;;;;;;;27.87;37.78;69875.66;4985251;28;20045;-81
2022/08/11 09:35:42;;;;;;;3.30;2.28;;;;;;;28.01;36.15;69890.59;4987759;28;20731;-81
2022/08/11 09:40:57;;;;;;;5.07;2.30;;;;;;;28.12;35.14;69903.81;4977124;28;20053;-81
2022/08/11 09:46:09;;;;;;;6.18;2.35;;;;;;;28.17;35.03;69902.94;4977607;28;20057;-80
2022/08/11 09:48:41;;;;;;;4.40;2.60;;;;;;;28.27;36.11;69920.47;4985327;28;20054;-80
2022/08/11 09:51:08;;;;;;;4.95;2.40;;;;;;;28.47;34.74;69940.19;4987134;28;20114;-80
2022/08/11 09:53:39;;;;;;;5.65;2.72;;;;;;;28.51;35.01;69941.47;4988078;28;20098;-80
2022/08/11 09:58:53;;;;;;;8.15;2.70;;;;;;;28.48;33.18;69944.06;4949633;28;20054;-80
2022/08/11 10:01:28;;;;;;;5.95;3.30;;;;;;;28.59;33.75;69953.41;4964268;28;20043;-81
2022/08/11 10:04:06;;;;;;;6.90;2.22;;;;;;;28.78;34.14;69978.00;4978469;28;20038;-81
2022/08/11 10:09:21;;;;;;;5.70;2.25;;;;;;;28.78;33.75;69975.25;4976196;28;20057;-78
2022/08/11 10:11:48;;;;;;;5.53;2.90;;;;;;;28.95;34.44;69994.25;4978567;28;20039;-78
2022/08/11 10:17:05;;;;;;;3.80;2.40;;;;;;;28.99;32.54;69998.25;4979144;28;20167;-78
2022/08/11 10:19:34;;;;;;;3.65;2.10;;;;;;;28.94;32.41;69990.34;4976579;28;20278;-79
2022/08/11 10:27:32;;;;;;;4.63;2.72;;;;;;;29.21;32.83;70023.59;4975430;28;20073;-78
2022/08/11 10:35:30;;;;;;;5.10;2.35;;;;;;;29.56;31.94;70062.72;4973705;28;20104;-78
2022/08/11 10:37:56;;;;;;;5.97;2.50;;;;;;;29.77;31.69;70083.00;4971995;28;20039;-78
2022/08/11 10:40:23;;;;;;;3.92;2.15;;;;;;;29.89;31.59;70096.78;4974167;28;20070;-78
2022/08/11 10:43:01;;;;;;;6.32;2.50;;;;;;;29.74;30.83;70082.84;4975649;28;20041;-78
2022/08/11 10:48:25;;;;;;;7.78;2.50;;;;;;;29.76;30.82;70082.41;4974830;28;20049;-78
2022/08/11 10:59:12;;;;;;;4.68;2.55;;;;;;;29.89;29.71;70102.88;4971801;28;20564;-78
2022/08/11 11:01:42;;;;;;;7.75;2.35;;;;;;;29.75;30.06;70080.69;4974268;28;20082;-78
2022/08/11 11:04:23;;;;;;;5.45;2.20;;;;;;;29.72;30.63;70075.06;4974134;28;20035;-78
2022/08/11 11:07:27;;;;;;;4.45;2.55;;;;;;;29.75;29.80;70080.69;4975425;28;20059;-78
2022/08/11 11:09:57;;;;;;;3.47;2.13;;;;;;;29.59;28.58;70063.41;4899718;29;20142;-78
2022/08/11 11:18:06;;;;;;;6.68;2.47;;;;;;;29.89;30.58;70099.53;4972955;28;20041;-78
2022/08/11 11:20:42;;;;;;;5.38;2.20;;;;;;;30.06;31.57;70115.78;4971687;28;20053;-78
2022/08/11 11:23:19;;;;;;;4.28;2.20;;;;;;;30.14;30.11;70125.56;4970580;28;20387;-78
2022/08/11 11:26:09;;;;;;;4.70;2.10;;;;;;;30.13;29.98;70123.84;4975914;28;20053;-78
2022/08/11 11:29:05;;;;;;;4.97;2.30;;;;;;;30.00;30.60;70112.19;4971353;28;20043;-78
2022/08/11 11:32:03;;;;;;;3.33;2.28;;;;;;;30.18;29.85;70132.34;4977966;28;20050;-78
2022/08/11 11:34:37;;;;;;;6.25;2.05;;;;;;;30.32;29.11;70151.22;4979142;28;20446;-79
2022/08/11 11:37:03;;;;;;;5.50;2.05;;;;;;;30.25;29.31;70140.44;4976316;28;20485;-78
2022/08/11 11:39:32;;;;;;;5.00;2.28;;;;;;;30.30;29.58;70143.44;4980250;28;20035;-78
2022/08/11 11:42:04;;;;;;;5.50;2.00;;;;;;;30.35;29.92;70149.19;4976187;28;20034;-79
2022/08/11 11:44:30;;;;;;;4.32;2.30;;;;;;;30.64;29.94;70181.41;4974248;28;20070;-78
2022/08/11 11:46:57;;;;;;;8.13;2.20;;;;;;;30.60;29.20;70181.75;4973909;28;20046;-79
2022/08/11 11:49:31;;;;;;;3.67;2.08;;;;;;;30.53;29.25;70168.78;4950229;28;20066;-78
2022/08/11 11:51:57;;;;;;;4.45;2.25;;;;;;;30.60;29.17;70176.25;4972795;28;20035;-79
2022/08/11 11:54:25;;;;;;;4.60;1.80;;;;;;;30.55;28.82;70173.81;4971177;28;20043;-79
2022/08/11 11:56:55;;;;;;;4.57;2.05;;;;;;;30.78;29.86;70200.28;4971170;28;20055;-79
2022/08/11 12:02:09;;;;;;;5.75;1.92;;;;;;;31.03;27.75;70228.53;4968319;28;20257;-78
2022/08/11 12:04:41;;;;;;;7.18;2.47;;;;;;;30.89;29.52;70215.16;4970067;28;20189;-79
2022/08/11 12:09:53;;;;;;;4.47;2.03;;;;;;;30.99;29.26;70220.59;4967363;28;20045;-79
2022/08/11 12:15:05;;;;;;;5.65;2.10;;;;;;;31.10;28.50;70233.25;4970707;28;20082;-78
2022/08/11 12:17:31;;;;;;;4.18;2.38;;;;;;;31.29;28.31;70251.81;4972520;28;20072;-78
2022/08/11 12:19:57;;;;;;;4.18;2.03;;;;;;;31.42;28.37;70271.75;4971110;28;20487;-79
2022/08/11 12:27:55;;;;;;;5.50;2.00;;;;;;;31.19;27.47;70243.63;4963791;28;20073;-79
2022/08/11 12:30:21;;;;;;;3.65;2.15;;;;;;;31.46;28.60;70273.59;4973415;28;20049;-79
2022/08/11 12:32:47;;;;;;;8.63;2.10;;;;;;;31.65;27.22;70294.91;4977518;28;20043;-79
2022/08/11 12:35:14;;;;;;;7.55;2.13;;;;;;;31.75;27.90;70306.44;4975153;28;20038;-79
2022/08/11 12:37:43;;;;;;;9.13;2.65;;;;;;;31.89;26.83;70324.75;4976375;28;20042;-79
2022/08/11 12:45:57;;;;;;;4.10;2.15;;;;;;;31.69;27.76;70299.50;4953639;28;20045;-78
2022/08/11 12:54:13;;;;;;;4.95;1.85;;;;;;;32.17;27.51;70353.69;4972506;28;20145;-79
2022/08/11 13:05:06;;;;;;;2.90;1.90;;;;;;;32.44;26.94;70384.22;4973492;28;20065;-79
2022/08/11 13:07:33;;;;;;;3.33;2.00;;;;;;;32.31;26.00;70375.34;4971810;28;20046;-78
2022/08/11 13:10:04;;;;;;;2.63;1.75;;;;;;;32.49;26.68;70392.78;4972481;28;20409;-78
2022/08/11 13:12:49;;;;;;;2.60;1.90;;;;;;;32.41;25.67;70378.00;4971526;28;20047;-78
2022/08/11 13:15:23;;;;;;;5.28;2.05;;;;;;;32.51;25.93;70392.31;4960839;28;20038;-78
2022/08/11 13:17:51;;;;;;;4.50;1.90;;;;;;;32.72;27.68;70418.72;4972054;28;20035;-78
2022/08/11 13:20:22;;;;;;;4.43;2.20;;;;;;;32.67;25.46;70409.59;4971925;28;20031;-79
2022/08/11 13:22:51;;;;;;;3.63;2.03;;;;;;;32.63;26.41;70407.75;4966087;28;20043;-79
2022/08/11 13:25:19;;;;;;;6.80;2.10;;;;;;;32.89;27.21;70434.97;4967965;28;20046;-78
2022/08/11 13:27:47;;;;;;;4.75;2.08;;;;;;;32.77;26.31;70421.13;4965875;28;20138;-78
2022/08/11 13:33:02;;;;;;;2.75;1.88;;;;;;;32.81;26.12;70428.50;4968130;28;20465;-78
2022/08/11 13:35:30;;;;;;;4.20;1.90;;;;;;;32.77;26.08;70424.47;4969301;28;20059;-78
2022/08/11 13:37:57;;;;;;;7.25;2.22;;;;;;;32.77;26.19;70418.38;4970103;28;20046;-78
2022/08/11 13:40:24;;;;;;;4.53;2.05;;;;;;;32.96;26.80;70440.28;4969400;28;20053;-78
2022/08/11 13:42:51;;;;;;;6.32;2.05;;;;;;;33.11;26.35;70459.78;4972104;28;20037;-79
2022/08/11 13:45:18;;;;;;;16.23;2.40;;;;;;;32.99;25.97;70449.28;4974068;28;20062;-79
2022/08/11 13:47:44;;;;;;;3.70;1.88;;;;;;;33.06;27.05;70453.44;4976828;28;20038;-79
2022/08/11 13:50:12;;;;;;;3.08;2.10;;;;;;;33.12;27.58;70460.38;4975992;28;20038;-79
2022/08/11 13:52:39;;;;;;;5.57;2.37;;;;;;;33.23;26.59;70475.78;4969357;28;20146;-79
2022/08/11 13:55:20;;;;;;;3.75;1.80;;;;;;;33.18;25.57;70462.34;4975950;28;20051;-79
2022/08/11 13:57:56;;;;;;;6.10;1.95;;;;;;;33.29;25.43;70479.97;4957027;28;20043;-79
2022/08/11 14:00:22;;;;;;;3.45;1.95;;;;;;;33.39;25.63;70488.72;4978874;28;20070;-79
2022/08/11 14:02:50;;;;;;;3.78;2.03;;;;;;;33.53;26.66;70512.03;4976823;28;20050;-81
2022/08/11 14:05:17;;;;;;;;;;;;;;;33.48;26.03;70501.28;4975229;28;20037;-80
2022/08/11 14:07:50;;;;;;;3.55;1.80;;;;;;;33.52;26.05;70505.94;4976020;28;20046;-80
2022/08/11 14:10:19;;;;;;;2.83;1.80;;;;;;;33.40;26.17;70498.16;4975584;28;20038;-79
2022/08/11 14:15:43;;;;;;;4.93;2.20;;;;;;;33.61;25.46;70516.31;4975818;28;20058;-80
2022/08/11 14:18:17;;;;;;;4.97;2.13;;;;;;;33.67;26.81;70526.00;4977989;28;20035;-80
2022/08/11 14:23:15;;;;;;;4.20;2.00;;;;;;;33.90;26.74;70551.94;4966462;28;20042;-77
2022/08/11 14:26:22;;;;;;;4.45;1.70;;;;;;;34.12;26.18;70576.78;4980036;28;20658;-76
2022/08/11 14:28:28;;;;;;;4.00;2.20;;;;;;;34.18;25.22;70582.53;4973806;28;20691;-76
2022/08/11 14:30:54;;;;;;;4.85;2.10;;;;;;;34.24;25.65;70584.53;4973303;28;20117;-76
2022/08/11 14:33:19;;;;;;;4.00;1.90;;;;;;;34.54;25.85;70620.75;4970833;28;20133;-76
2022/08/11 14:35:45;;;;;;;3.83;1.80;;;;;;;34.25;26.25;70587.84;4966101;28;20038;-77
2022/08/11 14:38:10;;;;;;;3.17;1.80;;;;;;;34.26;26.04;70591.75;4964938;28;20049;-76
2022/08/11 14:48:57;;;;;;;4.18;1.88;;;;;;;34.28;26.41;70591.88;4932278;28;20046;-77
2022/08/11 14:51:25;;;;;;;3.65;1.65;;;;;;;34.31;26.75;70592.59;4971736;28;20050;-76
2022/08/11 14:56:34;;;;;;;4.00;1.83;;;;;;;34.40;25.69;70610.13;4967716;28;20043;-77
2022/08/11 14:56:36;;;;;;;3.97;2.00;;;;;;;34.26;26.42;70592.34;4966563;28;20142;-77
2022/08/11 14:59:02;;;;;;;5.15;1.70;;;;;;;34.51;25.89;70620.63;4976765;28;20055;-76
2022/08/11 15:04:12;;;;;;;4.57;2.00;;;;;;;34.23;26.66;70588.88;4977624;28;20109;-77
2022/08/11 15:06:38;;;;;;;5.70;1.65;;;;;;;34.26;25.94;70591.75;4981961;28;20524;-77
2022/08/11 15:09:05;;;;;;;3.65;1.75;;;;;;;34.10;26.18;70571.13;4983715;28;20041;-76
2022/08/11 15:17:06;;;;;;;4.43;1.92;;;;;;;34.51;25.86;70617.28;4982547;28;20050;-77
2022/08/11 15:17:08;;;;;;;4.72;1.77;;;;;;;34.62;25.24;70626.66;4986654;28;20038;-76
2022/08/11 15:19:35;;;;;;;5.85;1.88;;;;;;;34.39;24.89;70604.00;4981028;28;20050;-76
2022/08/11 15:24:45;;;;;;;4.05;1.80;;;;;;;34.40;26.88;70604.59;4968729;28;20113;-77
2022/08/11 15:38:21;;;;;;;3.25;1.98;;;;;;;34.47;26.07;70615.41;4960327;28;20101;-76
2022/08/11 15:46:26;;;;;;;5.20;2.00;;;;;;;34.71;24.59;70643.16;4963705;28;20066;-76
2022/08/11 15:49:13;;;;;;;3.55;1.70;;;;;;;34.64;23.71;70632.28;4963105;28;20055;-77
2022/08/11 15:51:48;;;;;;;3.55;1.80;;;;;;;34.31;25.75;70594.78;4965374;28;20073;-77
2022/08/11 15:54:18;;;;;;;4.07;1.63;;;;;;;34.40;24.93;70601.81;4968581;28;20070;-76
2022/08/11 15:56:47;;;;;;;4.55;1.60;;;;;;;34.54;24.25;70615.22;4971231;28;20047;-77
2022/08/11 16:04:46;;;;;;;3.03;1.80;;;;;;;34.44;25.57;70611.94;4950823;28;20057;-77
2022/08/11 16:07:15;;;;;;;3.58;2.08;;;;;;;34.24;25.71;70589.44;4966803;28;20038;-77
2022/08/11 16:09:46;;;;;;;3.58;2.05;;;;;;;34.19;24.95;70580.94;4967693;28;20047;-77
2022/08/11 16:16:12;;;;;;;2.72;1.83;;;;;;;34.30;26.69;70594.19;4967196;28;20045;-77
2022/08/11 16:18:17;;;;;;;7.15;1.80;;;;;;;34.13;25.10;70580.13;4965484;28;20085;-79
2022/08/11 16:20:45;;;;;;;5.07;1.90;;;;;;;34.35;24.73;70596.63;4968081;28;20450;-77
2022/08/11 16:23:14;;;;;;;3.85;1.60;;;;;;;34.23;24.27;70586.13;4964360;28;20494;-76
2022/08/11 16:25:41;;;;;;;3.47;1.70;;;;;;;34.01;24.87;70561.31;4965641;28;20050;-77
2022/08/11 16:28:10;;;;;;;7.03;1.67;;;;;;;34.00;23.81;70562.31;4967375;28;20047;-76
2022/08/11 16:30:37;;;;;;;;;;;;;;;34.08;22.97;70572.16;4962943;28;20278;-77
2022/08/11 16:33:04;;;;;;;3.55;1.77;;;;;;;33.89;24.00;70548.03;4969654;28;19918;-76
2022/08/11 16:38:34;;;;;;;3.28;1.52;;;;;;;33.88;24.45;70549.06;4963940;28;20045;-77
2022/08/11 16:41:05;;;;;;;3.63;1.60;;;;;;;33.75;22.91;70534.06;4967013;28;20410;-77
2022/08/11 16:49:24;;;;;;;4.72;1.50;;;;;;;33.79;23.45;70539.25;4969316;28;20292;-76
2022/08/11 16:51:50;;;;;;;3.60;1.60;;;;;;;33.62;24.06;70519.66;4943981;28;20125;-76
2022/08/11 16:54:16;;;;;;;3.60;1.50;;;;;;;33.50;23.74;70503.03;4967119;28;20137;-76
2022/08/11 16:56:52;;;;;;;7.28;1.67;;;;;;;33.45;25.15;70498.41;4966313;28;20133;-76
2022/08/11 16:59:35;;;;;;;5.25;1.75;;;;;;;33.38;24.94;70490.34;4964867;28;20043;-76
2022/08/11 17:13:43;;;;;;;2.10;1.50;;;;;;;32.95;23.55;70444.06;4969662;28;20049;-76